Time;durP1;ratioP1;P1;durP2;ratioP2;P2;SDS_P1;SDS_P2;PMS_P1;PMS_P2;Temp;Humidity;BMP_temperature;BMP_pressure;BME280_temperature;BME280_humidity;BME280_pressure;Samples;Min_cycle;Max_cycle;Signal;HPM_P1;HPM_P2
2023/12/17 00:00:28;;;;;;;41.78;14.52;;;;;;;3.62;71.08;102892.44;5053733;28;20052;-75
2023/12/17 00:02:53;;;;;;;27.35;14.27;;;;;;;3.83;70.92;102934.66;5050304;28;20021;-76
2023/12/17 00:05:18;;;;;;;20.48;12.40;;;;;;;3.80;70.87;102932.94;5048713;28;20041;-75
2023/12/17 00:07:44;;;;;;;24.60;13.50;;;;;;;3.79;70.81;102936.50;5050382;28;20114;-77
2023/12/17 00:10:09;;;;;;;21.30;13.38;;;;;;;3.70;70.52;102922.50;5050041;28;20056;-76
2023/12/17 00:12:35;;;;;;;24.63;14.02;;;;;;;3.58;70.30;102904.03;5048726;28;20028;-75
2023/12/17 00:15:00;;;;;;;28.85;14.15;;;;;;;3.75;70.46;102939.25;5049418;28;20111;-75
2023/12/17 00:17:26;;;;;;;22.92;13.23;;;;;;;3.81;70.52;102947.13;5049934;28;20029;-76
2023/12/17 00:19:51;;;;;;;19.63;11.88;;;;;;;3.80;70.76;102929.41;5049328;28;20040;-76
2023/12/17 00:22:17;;;;;;;23.13;13.80;;;;;;;3.78;70.38;102925.88;5050025;28;20021;-76
2023/12/17 00:24:42;;;;;;;20.98;13.05;;;;;;;3.87;70.41;102941.69;5049064;28;20159;-78
2023/12/17 00:27:09;;;;;;;20.27;13.18;;;;;;;3.90;70.24;102949.63;5050145;28;20254;-76
2023/12/17 00:29:34;;;;;;;18.92;12.23;;;;;;;3.88;70.10;102931.94;5049478;28;20557;-76
2023/12/17 00:32:00;;;;;;;25.30;13.00;;;;;;;3.94;69.80;102948.69;5049424;28;20025;-77
2023/12/17 00:34:25;;;;;;;21.52;13.35;;;;;;;3.94;69.66;102943.38;5048146;28;20045;-75
2023/12/17 00:36:51;;;;;;;22.63;12.77;;;;;;;4.07;69.07;102955.53;5030390;28;20123;-76
2023/12/17 00:39:16;;;;;;;20.25;12.82;;;;;;;4.07;69.07;102970.63;5049732;28;20029;-76
2023/12/17 00:41:42;;;;;;;19.10;12.93;;;;;;;3.94;68.29;102940.72;5049638;28;20025;-75
2023/12/17 00:44:07;;;;;;;26.23;13.18;;;;;;;3.86;67.83;102929.28;5049459;28;20056;-76
2023/12/17 00:46:33;;;;;;;28.88;13.10;;;;;;;3.90;67.91;102939.00;5049765;28;20037;-75
2023/12/17 00:48:58;;;;;;;19.48;12.15;;;;;;;4.11;67.76;102981.22;5052469;28;20108;-76
2023/12/17 00:51:24;;;;;;;19.30;10.88;;;;;;;4.06;67.44;102963.56;5049380;28;20503;-75
2023/12/17 00:53:49;;;;;;;25.13;14.15;;;;;;;4.09;68.47;102975.06;5049520;28;20033;-74
2023/12/17 00:56:15;;;;;;;23.35;12.52;;;;;;;4.11;68.38;102975.91;5049054;28;20060;-75
2023/12/17 00:58:41;;;;;;;22.15;13.35;;;;;;;4.04;67.84;102949.38;5048814;28;20485;-73
2023/12/17 01:01:06;;;;;;;22.63;12.73;;;;;;;4.09;67.48;102988.38;5048935;28;20051;-75
2023/12/17 01:03:32;;;;;;;22.40;13.85;;;;;;;4.10;67.56;102986.56;5048592;28;20033;-76
2023/12/17 01:05:57;;;;;;;19.35;11.93;;;;;;;4.03;67.59;102991.13;5049040;28;20044;-76
2023/12/17 01:08:23;;;;;;;15.65;10.25;;;;;;;3.94;67.62;102963.78;5048921;28;20032;-74
2023/12/17 01:10:48;;;;;;;17.83;11.23;;;;;;;4.04;67.52;102976.91;5047452;28;20043;-76
2023/12/17 01:13:14;;;;;;;19.23;11.13;;;;;;;4.14;67.60;102993.59;5048742;28;20405;-76
2023/12/17 01:15:39;;;;;;;20.45;11.80;;;;;;;4.17;67.44;102993.56;5048453;28;20566;-75
2023/12/17 01:18:05;;;;;;;23.45;12.07;;;;;;;3.72;67.24;102915.34;5048807;28;20037;-74
2023/12/17 01:20:30;;;;;;;21.33;12.10;;;;;;;4.22;67.16;102989.03;5048865;28;20082;-76
2023/12/17 01:22:56;;;;;;;15.93;10.63;;;;;;;4.32;67.09;103002.16;5048678;28;20429;-75
2023/12/17 01:25:21;;;;;;;19.90;10.85;;;;;;;4.30;66.42;102987.13;5048299;28;20366;-75
2023/12/17 01:27:47;;;;;;;15.93;10.73;;;;;;;4.36;66.15;103001.22;5048633;28;20411;-77
2023/12/17 01:30:12;;;;;;;24.25;11.13;;;;;;;4.43;65.96;102996.66;5048408;28;20097;-77
2023/12/17 01:32:38;;;;;;;17.05;11.02;;;;;;;4.45;65.46;103004.59;5048700;28;20021;-76
2023/12/17 01:35:05;;;;;;;16.95;10.38;;;;;;;4.39;65.58;102993.16;5047908;28;20032;-75
2023/12/17 01:37:31;;;;;;;18.08;10.38;;;;;;;4.35;64.95;102994.13;5048803;28;20052;-75
2023/12/17 01:39:56;;;;;;;18.60;10.60;;;;;;;4.26;65.60;102972.97;5050921;28;20067;-76
2023/12/17 01:42:22;;;;;;;19.20;12.10;;;;;;;4.22;65.30;102973.91;5049810;28;20140;-75
2023/12/17 01:44:47;;;;;;;19.08;11.43;;;;;;;4.29;65.13;102994.22;5050174;28;20549;-77
2023/12/17 01:47:13;;;;;;;18.20;11.32;;;;;;;3.99;65.09;102968.13;5049841;28;20447;-77
2023/12/17 01:49:39;;;;;;;19.77;12.30;;;;;;;3.99;65.90;102957.47;5048370;28;20608;-76
2023/12/17 01:52:05;;;;;;;21.02;12.50;;;;;;;4.14;66.02;102994.50;5045610;28;20162;-76
2023/12/17 01:54:30;;;;;;;18.85;12.32;;;;;;;4.11;65.77;102986.56;5047737;28;20025;-78
2023/12/17 01:56:56;;;;;;;20.42;13.27;;;;;;;4.10;65.41;102970.59;5047815;28;20121;-76
2023/12/17 01:59:22;;;;;;;19.08;12.23;;;;;;;4.18;65.42;102990.88;5047903;28;20029;-74
2023/12/17 02:01:52;;;;;;;17.67;11.90;;;;;;;4.15;65.32;102990.94;5047681;28;20029;-76
2023/12/17 02:04:21;;;;;;;13.70;9.90;;;;;;;4.11;65.53;102989.22;5047851;28;20029;-76
2023/12/17 02:06:47;;;;;;;25.00;12.48;;;;;;;4.06;65.64;102975.13;5047564;28;20035;-76
2023/12/17 02:09:12;;;;;;;21.63;12.20;;;;;;;4.10;65.77;102984.78;5047683;28;20026;-75
2023/12/17 02:11:38;;;;;;;20.20;11.60;;;;;;;4.12;65.46;102983.00;5047858;28;20112;-75
2023/12/17 02:14:03;;;;;;;20.42;12.02;;;;;;;3.94;65.43;102958.47;5047664;28;20555;-76
2023/12/17 02:16:29;;;;;;;25.00;12.10;;;;;;;4.02;65.63;102972.50;5047261;28;20024;-78
2023/12/17 02:18:57;;;;;;;23.25;12.77;;;;;;;4.03;66.00;102984.94;5047677;28;20041;-75
2023/12/17 02:21:23;;;;;;;22.45;11.85;;;;;;;4.03;66.31;102980.50;5047859;28;20029;-76
2023/12/17 02:23:48;;;;;;;19.55;11.07;;;;;;;3.96;66.52;102978.81;5047993;28;20040;-77
2023/12/17 02:26:14;;;;;;;23.98;13.55;;;;;;;4.09;66.38;102998.13;5047616;28;20063;-75
2023/12/17 02:28:40;;;;;;;20.23;11.95;;;;;;;4.09;66.32;102995.47;5048879;28;20017;-78
2023/12/17 02:31:05;;;;;;;20.92;11.73;;;;;;;4.13;66.66;102997.16;5050879;28;20511;-76
2023/12/17 02:33:31;;;;;;;17.38;10.85;;;;;;;4.12;66.73;102984.78;5048876;28;20037;-75
2023/12/17 02:35:56;;;;;;;23.08;13.50;;;;;;;4.06;66.33;102984.88;5047622;28;20060;-76
2023/12/17 02:38:22;;;;;;;18.38;11.50;;;;;;;4.10;66.48;102987.44;5047339;28;20056;-77
2023/12/17 02:40:49;;;;;;;26.40;13.05;;;;;;;4.09;66.27;102982.16;5047514;28;20056;-74
2023/12/17 02:43:14;;;;;;;23.30;13.02;;;;;;;4.13;66.77;102987.38;5047769;28;20049;-76
2023/12/17 02:45:40;;;;;;;20.20;11.82;;;;;;;4.12;66.31;102983.00;5047405;28;20056;-76
2023/12/17 02:48:05;;;;;;;18.35;12.48;;;;;;;4.11;66.50;102977.69;5050361;28;20476;-75
2023/12/17 02:50:31;;;;;;;21.10;13.63;;;;;;;4.14;66.68;102982.94;5051806;28;20059;-78
2023/12/17 02:52:56;;;;;;;22.77;12.90;;;;;;;4.11;66.63;102983.88;5051220;28;20025;-74
2023/12/17 02:55:22;;;;;;;21.60;13.55;;;;;;;4.06;66.73;102967.13;5051455;28;20028;-74
2023/12/17 02:57:47;;;;;;;20.55;13.68;;;;;;;4.11;66.99;102983.88;5051225;28;20492;-77
2023/12/17 03:00:13;;;;;;;24.38;13.23;;;;;;;4.14;67.01;102978.50;5051169;28;20033;-79
2023/12/17 03:02:39;;;;;;;18.45;12.65;;;;;;;4.15;66.74;102976.72;5051315;28;20040;-75
2023/12/17 03:05:05;;;;;;;19.17;11.93;;;;;;;4.12;67.07;102979.44;5050962;28;20025;-76
2023/12/17 03:07:30;;;;;;;27.65;13.95;;;;;;;4.04;67.07;102971.56;5051195;28;20424;-77
2023/12/17 03:09:56;;;;;;;17.48;11.70;;;;;;;3.91;67.02;102959.41;5050890;28;20093;-74
2023/12/17 03:12:21;;;;;;;20.17;13.30;;;;;;;4.03;67.28;102982.28;5051261;28;20025;-76
2023/12/17 03:14:47;;;;;;;25.75;13.05;;;;;;;4.02;67.51;102985.81;5051168;28;20025;-78
2023/12/17 03:17:13;;;;;;;26.98;14.40;;;;;;;4.05;67.69;102989.31;5050855;28;20049;-75
2023/12/17 03:19:38;;;;;;;21.33;12.88;;;;;;;4.05;67.96;102984.00;5053573;28;20512;-77
2023/12/17 03:22:03;;;;;;;24.48;13.85;;;;;;;4.05;67.78;102984.00;5053737;28;20080;-77
2023/12/17 03:24:29;;;;;;;28.17;12.90;;;;;;;3.94;67.60;102970.00;5051408;28;20036;-75
2023/12/17 03:26:54;;;;;;;18.60;13.82;;;;;;;4.00;68.23;102975.22;5050826;28;20048;-76
2023/12/17 03:29:20;;;;;;;23.27;13.77;;;;;;;4.06;68.17;102987.53;5050757;28;20138;-77
2023/12/17 03:31:46;;;;;;;25.10;13.73;;;;;;;4.08;68.29;102994.59;5050899;28;20396;-75
2023/12/17 03:34:11;;;;;;;20.55;12.18;;;;;;;4.00;68.18;102996.50;5048315;28;20041;-76
2023/12/17 03:36:37;;;;;;;20.48;13.32;;;;;;;4.05;68.30;102994.66;5050514;28;20029;-75
2023/12/17 03:39:03;;;;;;;37.53;13.68;;;;;;;4.02;68.22;102989.38;5051408;28;20028;-76
2023/12/17 03:41:48;;;;;;;23.38;13.68;;;;;;;4.08;68.63;102994.59;5048975;28;20374;-76
2023/12/17 03:44:34;;;;;;;21.17;13.50;;;;;;;4.04;68.38;103000.88;5049045;28;20037;-74
2023/12/17 03:47:00;;;;;;;18.27;12.88;;;;;;;4.04;68.50;102990.22;5028921;28;20045;-75
2023/12/17 03:49:25;;;;;;;22.83;14.07;;;;;;;3.97;68.73;102985.03;5027567;28;20084;-74
2023/12/17 03:51:51;;;;;;;20.63;12.68;;;;;;;3.96;68.93;103000.13;5027504;28;20077;-76
2023/12/17 03:54:16;;;;;;;20.70;13.82;;;;;;;3.93;68.98;102984.19;5027379;28;20038;-75
2023/12/17 03:56:48;;;;;;;21.63;13.68;;;;;;;3.90;68.88;102994.00;5027556;28;20033;-75
2023/12/17 03:59:15;;;;;;;24.27;14.30;;;;;;;3.73;69.25;102980.97;5026859;28;20041;-75
2023/12/17 04:01:47;;;;;;;22.08;14.52;;;;;;;3.89;70.11;102994.91;5027545;28;20041;-75
2023/12/17 04:04:13;;;;;;;25.00;14.60;;;;;;;3.81;69.99;102985.28;5027475;28;20146;-76
2023/12/17 04:06:42;;;;;;;29.83;14.40;;;;;;;3.86;70.20;102987.84;5027503;28;20535;-74
2023/12/17 04:09:08;;;;;;;26.60;16.60;;;;;;;3.88;70.37;102986.06;5028903;28;20068;-79
2023/12/17 04:11:34;;;;;;;33.85;17.77;;;;;;;3.80;70.67;102983.50;5030453;28;20041;-77
2023/12/17 04:14:00;;;;;;;25.67;15.55;;;;;;;3.87;71.04;102984.28;5027382;28;20102;-76
2023/12/17 04:16:25;;;;;;;26.83;17.00;;;;;;;3.83;70.94;102987.91;5026788;28;20026;-76
2023/12/17 04:18:51;;;;;;;27.25;15.80;;;;;;;3.81;71.45;102982.63;5040324;28;20397;-75
2023/12/17 04:21:16;;;;;;;21.77;14.57;;;;;;;3.87;71.50;102976.31;5067492;28;20124;-77
2023/12/17 04:23:43;;;;;;;24.40;16.10;;;;;;;3.81;71.94;102973.75;5063515;28;20037;-75
2023/12/17 04:26:11;;;;;;;26.15;16.65;;;;;;;3.93;72.53;102983.31;5049341;28;20394;-75
2023/12/17 04:28:36;;;;;;;28.42;16.83;;;;;;;3.97;72.48;102996.56;5049932;28;20028;-77
2023/12/17 04:31:02;;;;;;;24.70;16.15;;;;;;;3.97;72.52;102983.25;5049365;28;20129;-76
2023/12/17 04:33:27;;;;;;;25.88;16.40;;;;;;;3.97;72.33;102996.56;5049752;28;20102;-76
2023/12/17 04:35:53;;;;;;;32.55;19.30;;;;;;;3.97;72.37;102980.59;5049146;28;20035;-75
2023/12/17 04:38:18;;;;;;;26.77;18.33;;;;;;;3.84;72.61;102957.72;5049724;28;20043;-76
2023/12/17 04:40:46;;;;;;;29.17;18.88;;;;;;;3.91;72.80;102964.72;5049461;28;20082;-75
2023/12/17 04:43:12;;;;;;;28.15;16.48;;;;;;;4.07;73.05;102992.81;5030623;28;20036;-75
2023/12/17 04:45:38;;;;;;;29.55;18.70;;;;;;;4.12;73.25;102992.75;5049366;28;20033;-75
2023/12/17 04:48:04;;;;;;;39.05;18.83;;;;;;;4.14;73.31;102981.16;5049455;28;20390;-74
2023/12/17 04:50:31;;;;;;;30.38;18.88;;;;;;;4.31;73.13;102992.41;5049266;28;20140;-77
2023/12/17 04:52:57;;;;;;;31.25;20.02;;;;;;;4.28;72.52;102987.13;5050337;28;20099;-76
2023/12/17 04:55:22;;;;;;;36.85;19.20;;;;;;;4.34;72.56;102988.81;5049336;28;20029;-75
2023/12/17 04:57:48;;;;;;;37.35;17.13;;;;;;;4.37;72.42;102992.28;5050179;28;20040;-77
2023/12/17 05:00:15;;;;;;;36.17;18.15;;;;;;;4.49;72.10;102995.66;5052486;28;20039;-77
2023/12/17 05:02:40;;;;;;;27.80;16.77;;;;;;;4.54;72.25;102999.09;5050953;28;20029;-76
2023/12/17 05:05:06;;;;;;;33.67;17.17;;;;;;;4.45;71.97;102983.28;5049460;28;20033;-77
2023/12/17 05:07:32;;;;;;;26.95;16.23;;;;;;;4.55;71.83;102982.22;5048805;28;20457;-75
2023/12/17 05:09:58;;;;;;;32.97;18.70;;;;;;;4.56;72.01;102997.28;5048816;28;20040;-75
2023/12/17 05:12:23;;;;;;;25.10;15.38;;;;;;;4.54;72.55;103009.75;5048816;28;20489;-77
2023/12/17 05:14:49;;;;;;;28.83;16.42;;;;;;;4.42;73.23;102999.31;5048520;28;20029;-75
2023/12/17 05:17:14;;;;;;;26.42;17.35;;;;;;;4.41;73.20;103003.78;5048940;28;20028;-75
2023/12/17 05:19:40;;;;;;;24.17;16.95;;;;;;;4.46;73.45;103009.03;5048729;28;20474;-77
2023/12/17 05:22:05;;;;;;;31.00;16.35;;;;;;;4.43;73.04;103003.75;5049593;28;20025;-77
2023/12/17 05:24:31;;;;;;;28.23;16.95;;;;;;;4.34;73.12;102999.47;5048950;28;20037;-75
2023/12/17 05:26:56;;;;;;;27.55;16.33;;;;;;;4.30;73.20;102995.09;5048788;28;20855;-76
2023/12/17 05:29:22;;;;;;;32.00;18.35;;;;;;;4.40;73.42;103018.88;5048467;28;20049;-76
2023/12/17 05:31:47;;;;;;;33.97;19.05;;;;;;;4.42;73.24;103025.97;5048219;28;20033;-76
2023/12/17 05:34:13;;;;;;;28.63;17.73;;;;;;;4.33;73.04;103000.38;5048672;28;20021;-76
2023/12/17 05:36:38;;;;;;;28.95;18.58;;;;;;;4.38;73.12;103023.38;5048517;28;20036;-77
2023/12/17 05:39:04;;;;;;;28.77;17.17;;;;;;;4.24;73.14;103001.44;5048984;28;20029;-75
2023/12/17 05:41:29;;;;;;;36.80;17.60;;;;;;;4.28;73.65;103016.44;5049093;28;20112;-75
2023/12/17 05:43:55;;;;;;;25.65;14.85;;;;;;;4.15;73.42;102996.25;5049613;28;20079;-77
2023/12/17 05:46:20;;;;;;;30.33;15.98;;;;;;;4.19;73.55;103021.91;5048724;28;20055;-76
2023/12/17 05:48:46;;;;;;;30.25;16.10;;;;;;;4.23;73.58;103026.28;5050657;28;20032;-76
2023/12/17 05:51:11;;;;;;;25.67;16.15;;;;;;;4.04;73.11;102998.19;5051917;28;20675;-77
2023/12/17 05:53:37;;;;;;;32.80;16.92;;;;;;;4.17;73.60;103013.06;5048650;28;20021;-76
2023/12/17 05:56:03;;;;;;;28.48;16.88;;;;;;;4.24;73.62;103029.84;5048312;28;20082;-75
2023/12/17 05:58:29;;;;;;;43.08;20.10;;;;;;;4.22;73.29;103040.50;5048139;28;20094;-78
2023/12/17 06:00:56;;;;;;;39.10;22.40;;;;;;;4.27;73.20;103033.34;5047974;28;20064;-77
2023/12/17 06:03:21;;;;;;;35.55;20.08;;;;;;;4.15;73.18;103012.25;5045752;28;20041;-76
2023/12/17 06:05:47;;;;;;;29.73;18.00;;;;;;;4.32;72.84;103031.47;5048506;28;20048;-77
2023/12/17 06:08:12;;;;;;;36.35;20.65;;;;;;;4.26;72.82;103012.91;5048081;28;20025;-77
2023/12/17 06:10:39;;;;;;;34.72;17.77;;;;;;;4.30;72.50;103033.28;5048134;28;20043;-78
2023/12/17 06:13:04;;;;;;;36.30;18.83;;;;;;;4.28;72.45;103040.41;5048279;28;20017;-76
2023/12/17 06:15:30;;;;;;;42.20;19.88;;;;;;;4.19;72.32;103013.91;5047887;28;20024;-76
2023/12/17 06:17:55;;;;;;;55.38;19.80;;;;;;;4.30;72.57;103017.31;5047683;28;20024;-76
2023/12/17 06:20:21;;;;;;;36.10;19.92;;;;;;;4.07;72.13;102992.81;5047962;28;20036;-77
2023/12/17 06:22:49;;;;;;;32.90;19.67;;;;;;;4.16;72.40;103013.97;5046177;28;20491;-76
2023/12/17 06:25:15;;;;;;;31.58;19.25;;;;;;;4.39;72.52;103035.78;5047688;28;20053;-78
2023/12/17 06:27:40;;;;;;;35.28;20.20;;;;;;;4.39;72.35;103032.25;5048085;28;20119;-76
2023/12/17 06:30:07;;;;;;;37.95;21.17;;;;;;;4.40;72.56;103015.34;5047757;28;20057;-77
2023/12/17 06:32:32;;;;;;;42.92;21.20;;;;;;;4.54;72.20;103020.44;5048370;28;20036;-77
2023/12/17 06:34:58;;;;;;;44.53;21.25;;;;;;;4.56;71.88;103026.59;5048366;28;20021;-77
2023/12/17 06:37:23;;;;;;;36.28;18.42;;;;;;;4.59;71.75;103013.22;5048384;28;20025;-79
2023/12/17 06:39:50;;;;;;;36.88;20.08;;;;;;;4.65;71.89;103023.75;5049942;28;20376;-77
2023/12/17 06:42:15;;;;;;;40.17;21.65;;;;;;;4.65;71.54;103023.75;5048455;28;20049;-77
2023/12/17 06:44:41;;;;;;;44.65;20.65;;;;;;;4.65;71.29;103024.63;5047781;28;20079;-77
2023/12/17 06:47:06;;;;;;;36.08;20.50;;;;;;;4.63;71.48;103005.16;5047690;28;20033;-79
2023/12/17 06:49:32;;;;;;;32.50;19.70;;;;;;;4.44;71.41;102954.88;5047721;28;20115;-76
2023/12/17 06:51:57;;;;;;;35.80;21.63;;;;;;;4.70;71.41;103012.13;5047194;28;20025;-76
2023/12/17 06:54:23;;;;;;;42.45;20.58;;;;;;;4.80;71.10;103028.84;5047588;28;20140;-76
2023/12/17 06:56:48;;;;;;;32.58;19.67;;;;;;;4.84;71.26;103025.16;5047492;28;20028;-77
2023/12/17 06:59:14;;;;;;;32.83;19.20;;;;;;;4.70;71.29;103008.59;5047352;28;20072;-76
2023/12/17 07:01:39;;;;;;;34.80;20.13;;;;;;;4.82;71.23;103029.66;5047264;28;20155;-76
2023/12/17 07:04:05;;;;;;;34.25;19.50;;;;;;;4.81;71.17;103025.22;5047382;28;20121;-76
2023/12/17 07:06:30;;;;;;;36.00;19.52;;;;;;;4.81;71.06;103025.22;5047342;28;20024;-78
2023/12/17 07:08:57;;;;;;;32.97;20.27;;;;;;;4.88;70.91;103026.88;5047089;28;20497;-79
2023/12/17 07:11:22;;;;;;;37.83;18.98;;;;;;;4.75;70.50;103022.69;5047407;28;20397;-76
2023/12/17 07:13:49;;;;;;;31.73;18.95;;;;;;;4.71;70.75;103035.19;5047070;28;20025;-78
2023/12/17 07:16:25;;;;;;;33.20;18.20;;;;;;;4.71;71.30;103029.00;5047164;28;20022;-79
2023/12/17 07:18:51;;;;;;;35.53;19.63;;;;;;;4.73;71.37;103028.06;5047690;28;20029;-79
2023/12/17 07:21:17;;;;;;;38.40;20.08;;;;;;;4.70;71.43;103016.56;5048311;28;20017;-76
2023/12/17 07:23:43;;;;;;;35.97;20.67;;;;;;;4.66;71.66;103020.19;5047709;28;20132;-77
2023/12/17 07:26:08;;;;;;;28.10;18.33;;;;;;;4.70;71.55;103021.91;5047360;28;20143;-79
2023/12/17 07:28:34;;;;;;;30.85;18.83;;;;;;;4.68;71.92;103008.59;5051254;28;20040;-77
2023/12/17 07:31:00;;;;;;;38.53;19.85;;;;;;;4.69;71.67;103009.47;5047049;28;20634;-78
2023/12/17 07:33:26;;;;;;;33.40;20.55;;;;;;;4.61;72.16;103000.75;5047649;28;20044;-78
2023/12/17 07:35:52;;;;;;;40.28;20.38;;;;;;;4.73;71.97;103001.41;5051080;28;20025;-76
2023/12/17 07:38:18;;;;;;;45.55;20.23;;;;;;;4.82;72.26;102997.69;5048260;28;20051;-77
2023/12/17 07:40:43;;;;;;;42.33;22.23;;;;;;;5.00;72.32;103015.09;5050768;28;20559;-80
2023/12/17 07:43:09;;;;;;;41.10;21.17;;;;;;;4.97;72.03;103016.03;5049109;28;20260;-76
2023/12/17 07:45:36;;;;;;;44.47;21.75;;;;;;;5.02;72.10;102995.47;5050498;28;20017;-78
2023/12/17 07:48:02;;;;;;;50.15;21.10;;;;;;;5.14;72.25;103003.22;5050453;28;20130;-76
2023/12/17 07:50:28;;;;;;;44.17;20.92;;;;;;;5.25;72.08;103019.91;5050642;28;20405;-76
2023/12/17 07:52:54;;;;;;;40.05;20.50;;;;;;;5.24;71.75;103015.47;5050590;28;20033;-76
2023/12/17 07:55:20;;;;;;;46.53;20.40;;;;;;;5.19;71.55;103006.69;5050697;28;20135;-76
2023/12/17 07:57:46;;;;;;;34.55;20.55;;;;;;;5.37;71.50;103027.63;5050248;28;20100;-76
2023/12/17 08:00:12;;;;;;;41.45;21.13;;;;;;;5.44;71.17;103034.56;5050319;28;20496;-77
2023/12/17 08:02:38;;;;;;;45.17;21.65;;;;;;;5.49;70.91;103038.06;5050410;28;20033;-78
2023/12/17 08:05:05;;;;;;;38.65;21.33;;;;;;;5.54;71.35;103029.91;5050586;28;20021;-76
2023/12/17 08:07:32;;;;;;;45.97;21.80;;;;;;;5.54;71.51;103008.56;5048369;28;20044;-75
2023/12/17 08:09:58;;;;;;;35.22;20.10;;;;;;;5.77;71.00;103021.41;5050257;28;20029;-77
2023/12/17 08:12:23;;;;;;;34.03;19.42;;;;;;;5.73;70.59;103019.72;5050970;28;20076;-78
2023/12/17 08:14:49;;;;;;;32.80;18.55;;;;;;;5.78;70.65;103002.66;5050368;28;20116;-77
2023/12/17 08:17:15;;;;;;;33.95;18.20;;;;;;;5.92;69.97;103013.06;5051621;28;20021;-78
2023/12/17 08:19:42;;;;;;;39.10;19.65;;;;;;;6.07;69.91;103018.03;5033540;28;20110;-77
2023/12/17 08:22:08;;;;;;;34.85;20.58;;;;;;;6.04;69.47;102983.38;5049657;28;20119;-76
2023/12/17 08:24:34;;;;;;;30.67;18.20;;;;;;;6.28;69.29;102990.75;5049920;28;20025;-76
2023/12/17 08:26:59;;;;;;;32.13;20.08;;;;;;;6.40;68.34;102987.78;5049798;28;20102;-77
2023/12/17 08:29:26;;;;;;;38.40;19.67;;;;;;;6.67;67.91;103001.31;5049643;28;20045;-76
2023/12/17 08:31:52;;;;;;;39.38;19.42;;;;;;;6.70;67.48;102994.06;5050255;28;20086;-76
2023/12/17 08:34:17;;;;;;;38.03;21.85;;;;;;;6.31;67.33;102907.84;5050177;28;20083;-79
2023/12/17 08:36:43;;;;;;;29.23;19.13;;;;;;;6.95;67.28;102971.06;5050029;28;20464;-76
2023/12/17 08:39:11;;;;;;;35.65;20.25;;;;;;;7.01;67.54;102970.91;5049542;28;20116;-76
2023/12/17 08:41:38;;;;;;;39.67;20.38;;;;;;;7.17;66.34;102965.09;5049046;28;20439;-76
2023/12/17 08:44:04;;;;;;;35.65;18.25;;;;;;;7.42;66.02;102968.78;5049273;28;20111;-76
2023/12/17 08:46:29;;;;;;;29.55;17.05;;;;;;;7.37;65.30;102947.47;5049061;28;20064;-78
2023/12/17 08:48:55;;;;;;;27.55;15.88;;;;;;;7.67;65.11;102967.09;5049161;28;20055;-77
2023/12/17 08:51:21;;;;;;;27.27;15.98;;;;;;;7.77;64.58;102962.31;5049444;28;20075;-79
2023/12/17 08:53:47;;;;;;;26.50;15.73;;;;;;;7.84;64.39;102958.50;5049259;28;20033;-77
2023/12/17 08:56:13;;;;;;;25.75;15.32;;;;;;;7.80;63.64;102933.59;5049294;28;20035;-77
2023/12/17 08:58:38;;;;;;;31.60;14.18;;;;;;;8.01;62.11;102964.19;5049309;28;20409;-79
2023/12/17 09:01:04;;;;;;;20.73;13.32;;;;;;;8.03;61.84;102948.91;5050220;28;20029;-75
2023/12/17 09:03:30;;;;;;;24.42;14.77;;;;;;;7.93;61.62;102940.31;5049591;28;20140;-77
2023/12/17 09:05:55;;;;;;;32.75;18.15;;;;;;;8.09;62.43;102948.72;5049146;28;20021;-77
2023/12/17 09:08:21;;;;;;;35.67;21.90;;;;;;;8.18;63.05;102937.66;5050597;28;20068;-76
2023/12/17 09:10:47;;;;;;;45.97;21.52;;;;;;;8.25;62.90;102949.94;5049796;28;20025;-76
2023/12/17 09:13:13;;;;;;;42.40;24.63;;;;;;;8.22;62.85;102955.41;5049161;28;20028;-79
2023/12/17 09:15:39;;;;;;;39.35;24.40;;;;;;;8.20;62.96;102951.88;5048078;28;20504;-77
2023/12/17 09:18:05;;;;;;;42.63;24.20;;;;;;;8.21;63.20;102948.28;5048849;28;20032;-77
2023/12/17 09:20:31;;;;;;;36.50;22.23;;;;;;;8.08;63.15;102936.22;5049134;28;20021;-77
2023/12/17 09:22:58;;;;;;;48.78;25.33;;;;;;;8.06;63.48;102947.00;5049040;28;20081;-77
2023/12/17 09:25:23;;;;;;;41.97;22.55;;;;;;;8.04;64.05;102956.03;5048519;28;20143;-79
2023/12/17 09:27:51;;;;;;;37.55;22.45;;;;;;;8.05;64.35;102947.06;5048492;28;20174;-76
2023/12/17 09:30:20;;;;;;;33.28;21.15;;;;;;;8.02;64.32;102939.13;5048478;28;20492;-76
2023/12/17 09:32:46;;;;;;;35.92;20.33;;;;;;;7.89;64.75;102929.75;5049308;28;20033;-78
2023/12/17 09:35:11;;;;;;;36.28;20.33;;;;;;;7.91;64.55;102915.38;5048803;28;20032;-77
2023/12/17 09:37:37;;;;;;;30.80;18.60;;;;;;;8.11;64.25;102955.75;5048729;28;20469;-77
2023/12/17 09:40:04;;;;;;;38.10;19.08;;;;;;;8.16;63.71;102929.66;5048858;28;20029;-79
2023/12/17 09:42:30;;;;;;;29.77;16.80;;;;;;;7.92;63.13;102889.47;5048860;28;20036;-77
2023/12/17 09:44:56;;;;;;;26.33;16.00;;;;;;;7.94;63.47;102906.34;5050580;28;20033;-77
2023/12/17 09:47:21;;;;;;;36.53;16.63;;;;;;;8.17;63.67;102941.28;5048761;28;20082;-77
2023/12/17 09:49:47;;;;;;;27.40;16.15;;;;;;;8.26;63.86;102935.59;5048722;28;20048;-76
2023/12/17 09:52:17;;;;;;;31.67;16.27;;;;;;;8.28;63.09;102927.53;5048538;28;20520;-77
2023/12/17 09:54:43;;;;;;;27.98;17.17;;;;;;;8.27;63.54;102917.69;5048859;28;20029;-76
2023/12/17 09:57:11;;;;;;;32.22;18.10;;;;;;;8.20;63.49;102876.81;5049057;28;20032;-77
2023/12/17 09:59:37;;;;;;;27.13;16.40;;;;;;;8.48;62.95;102912.47;5051438;28;20482;-77
2023/12/17 10:02:02;;;;;;;34.45;16.33;;;;;;;8.47;62.62;102904.50;5049809;28;20082;-76
2023/12/17 10:04:28;;;;;;;25.35;14.50;;;;;;;8.48;63.01;102900.88;5048176;28;20060;-78
2023/12/17 10:06:53;;;;;;;33.50;18.27;;;;;;;8.60;63.08;102914.72;5046623;28;20724;-77
2023/12/17 10:09:19;;;;;;;33.15;17.45;;;;;;;8.52;63.05;102879.25;5046689;28;20021;-75
2023/12/17 10:11:45;;;;;;;29.58;17.50;;;;;;;8.61;62.74;102908.44;5047544;28;20029;-77
2023/12/17 10:14:24;;;;;;;26.08;17.58;;;;;;;8.56;62.82;102891.59;5048423;28;20409;-78
2023/12/17 10:16:51;;;;;;;39.47;18.90;;;;;;;8.58;62.92;102900.50;5047930;28;20061;-77
2023/12/17 10:19:17;;;;;;;34.20;19.45;;;;;;;8.61;62.88;102889.66;5045251;28;20033;-76
2023/12/17 10:21:43;;;;;;;35.10;19.02;;;;;;;8.76;62.97;102904.28;5047143;28;20033;-77
2023/12/17 10:24:09;;;;;;;31.23;17.67;;;;;;;8.83;62.86;102915.69;5047793;28;20570;-77
2023/12/17 10:26:50;;;;;;;35.95;17.25;;;;;;;8.82;62.23;102887.09;5047892;28;20101;-76
2023/12/17 10:29:18;;;;;;;22.98;16.10;;;;;;;8.71;62.26;102853.47;5047792;28;20604;-77
2023/12/17 10:31:44;;;;;;;28.40;17.42;;;;;;;8.83;62.22;102870.94;5047676;28;20036;-76
2023/12/17 10:34:22;;;;;;;24.08;16.00;;;;;;;8.93;61.85;102858.03;5047868;28;20033;-75
2023/12/17 10:36:52;;;;;;;37.28;16.38;;;;;;;8.97;61.64;102846.22;5048164;28;20025;-77
2023/12/17 10:39:19;;;;;;;25.95;16.33;;;;;;;9.05;60.92;102874.50;5048108;28;20052;-76
2023/12/17 10:41:47;;;;;;;23.52;15.43;;;;;;;9.05;60.59;102873.66;5049349;28;20128;-78
2023/12/17 10:44:15;;;;;;;22.98;14.30;;;;;;;9.01;60.46;102867.53;5048836;28;20025;-79
2023/12/17 10:46:42;;;;;;;25.00;15.05;;;;;;;9.08;60.24;102870.88;5050955;28;20462;-78
2023/12/17 10:49:09;;;;;;;35.67;17.52;;;;;;;9.17;60.64;102863.28;5052206;28;20033;-76
2023/12/17 10:51:40;;;;;;;22.02;14.65;;;;;;;9.25;59.90;102865.69;5052572;28;20021;-77
2023/12/17 10:54:07;;;;;;;23.02;13.77;;;;;;;9.35;59.94;102861.69;5052710;28;20029;-76
2023/12/17 10:56:37;;;;;;;29.55;14.75;;;;;;;9.51;59.81;102857.41;5049563;28;20044;-75
2023/12/17 10:59:10;;;;;;;29.80;16.88;;;;;;;9.60;59.12;102850.81;5047469;28;20025;-73
2023/12/17 11:01:38;;;;;;;27.35;14.65;;;;;;;9.62;58.78;102838.19;5047543;28;20509;-74
2023/12/17 11:04:06;;;;;;;24.48;14.95;;;;;;;9.61;58.18;102810.44;5047750;28;20029;-74
2023/12/17 11:06:32;;;;;;;21.40;13.07;;;;;;;10.03;57.68;102841.78;5047314;28;20029;-73
2023/12/17 11:08:58;;;;;;;29.17;13.07;;;;;;;10.08;57.47;102815.56;5050659;28;20021;-77
2023/12/17 11:11:24;;;;;;;30.20;14.40;;;;;;;10.43;57.21;102854.38;5051676;28;20021;-77